Time;durP1;ratioP1;P1;durP2;ratioP2;P2;SDS_P1;SDS_P2;PMS_P1;PMS_P2;Temp;Humidity;BMP_temperature;BMP_pressure;BME280_temperature;BME280_humidity;BME280_pressure;Samples;Min_cycle;Max_cycle;Signal;HPM_P1;HPM_P2
2023/05/18 00:00:10;;;;;;;6.47;2.53;;;12.00;81.10;;;;;;5074332;28;20285;-77
2023/05/18 00:02:37;;;;;;;4.03;2.17;;;12.00;80.80;;;;;;5073812;28;20244;-78
2023/05/18 00:05:07;;;;;;;5.18;2.00;;;12.00;81.10;;;;;;5073903;28;20227;-75
2023/05/18 00:07:34;;;;;;;7.47;3.42;;;12.00;81.40;;;;;;5073325;28;20224;-75
2023/05/18 00:10:01;;;;;;;3.60;2.08;;;11.90;81.70;;;;;;5073474;28;20686;-76
2023/05/18 00:12:28;;;;;;;2.97;2.30;;;11.90;81.80;;;;;;5085238;28;20253;-78
2023/05/18 00:14:55;;;;;;;4.38;1.92;;;11.80;82.10;;;;;;5093148;28;20247;-76
2023/05/18 00:17:22;;;;;;;4.35;2.38;;;11.80;82.20;;;;;;5072764;28;20248;-75
2023/05/18 00:19:49;;;;;;;7.10;2.40;;;11.80;82.40;;;;;;5073821;28;20552;-77
2023/05/18 00:22:18;;;;;;;6.20;2.90;;;11.80;82.80;;;;;;5062333;28;20228;-75
2023/05/18 00:24:46;;;;;;;5.18;2.05;;;11.80;82.70;;;;;;5073109;28;20281;-77
2023/05/18 00:27:13;;;;;;;4.82;2.78;;;11.80;82.80;;;;;;5073497;28;20592;-77
2023/05/18 00:29:40;;;;;;;4.80;2.30;;;11.80;82.90;;;;;;5072588;28;21334;-75
2023/05/18 00:32:07;;;;;;;8.93;2.20;;;11.80;83.10;;;;;;5072822;28;20216;-75
2023/05/18 00:34:34;;;;;;;5.47;2.42;;;11.70;83.20;;;;;;5072253;28;20223;-75
2023/05/18 00:37:01;;;;;;;4.90;2.47;;;11.70;83.50;;;;;;5072695;28;20224;-77
2023/05/18 00:39:30;;;;;;;6.30;3.60;;;11.70;83.60;;;;;;5073048;28;20251;-77
2023/05/18 00:41:57;;;;;;;6.75;2.40;;;11.70;83.90;;;;;;5073258;28;20541;-77
2023/05/18 00:44:24;;;;;;;3.22;2.20;;;11.70;84.00;;;;;;5072607;28;20228;-76
2023/05/18 00:46:51;;;;;;;6.22;2.15;;;11.70;84.30;;;;;;5071662;28;20220;-75
2023/05/18 00:49:19;;;;;;;4.35;2.20;;;11.70;84.40;;;;;;5073439;28;20273;-76
2023/05/18 00:51:46;;;;;;;6.20;2.20;;;11.70;84.50;;;;;;5072706;28;20273;-75
2023/05/18 00:54:14;;;;;;;7.50;3.15;;;11.70;85.00;;;;;;5073232;28;20219;-78
2023/05/18 00:56:45;;;;;;;6.55;3.35;;;11.70;85.30;;;;;;5072442;28;20236;-75
2023/05/18 00:59:13;;;;;;;5.43;2.67;;;11.70;85.10;;;;;;5073355;28;20299;-75
2023/05/18 01:01:42;;;;;;;5.20;1.88;;;11.70;85.50;;;;;;5072900;28;20248;-74
2023/05/18 01:04:12;;;;;;;5.55;2.03;;;11.70;85.50;;;;;;5072567;28;20310;-74
2023/05/18 01:06:40;;;;;;;4.72;2.20;;;11.70;85.50;;;;;;5072626;28;20227;-76
2023/05/18 01:09:10;;;;;;;5.68;1.95;;;11.70;85.60;;;;;;5072626;28;20224;-74
2023/05/18 01:11:51;;;;;;;8.57;2.10;;;11.60;86.00;;;;;;5070976;28;20244;-77
2023/05/18 01:14:25;;;;;;;6.05;2.13;;;11.60;86.20;;;;;;5072006;28;20242;-74
2023/05/18 01:16:57;;;;;;;2.90;2.28;;;11.50;86.30;;;;;;5072452;28;20719;-76
2023/05/18 01:19:44;;;;;;;7.13;2.58;;;11.60;86.30;;;;;;5071660;28;20230;-74
2023/05/18 01:22:28;;;;;;;4.95;2.20;;;11.60;86.30;;;;;;5072599;28;20303;-77
2023/05/18 01:25:03;;;;;;;4.95;2.80;;;11.60;86.50;;;;;;5073112;28;20307;-79
2023/05/18 01:27:36;;;;;;;8.55;2.40;;;11.60;86.70;;;;;;5072774;28;20227;-77
2023/05/18 01:30:04;;;;;;;3.75;1.80;;;11.60;86.70;;;;;;5073198;28;20222;-74
2023/05/18 01:32:39;;;;;;;7.15;2.53;;;11.60;86.80;;;;;;5072395;28;20663;-75
2023/05/18 01:35:06;;;;;;;4.55;2.25;;;11.60;87.00;;;;;;5072821;28;20223;-74
2023/05/18 01:37:33;;;;;;;5.53;1.80;;;11.50;87.00;;;;;;5072252;28;20242;-75
2023/05/18 01:40:00;;;;;;;5.70;1.83;;;11.60;87.10;;;;;;5072951;28;20219;-75
2023/05/18 01:42:30;;;;;;;10.98;2.92;;;11.50;87.40;;;;;;5072419;28;20232;-74
2023/05/18 01:45:03;;;;;;;4.22;2.63;;;11.50;87.80;;;;;;5072888;28;20230;-77
2023/05/18 01:47:33;;;;;;;3.80;1.80;;;11.40;88.10;;;;;;5072481;28;20219;-75
2023/05/18 01:50:05;;;;;;;5.25;1.83;;;11.40;88.40;;;;;;5072904;28;20228;-74
2023/05/18 01:52:36;;;;;;;6.07;2.00;;;11.40;88.70;;;;;;5072458;28;20232;-77
2023/05/18 01:55:04;;;;;;;6.47;2.00;;;11.40;88.70;;;;;;5072776;28;20223;-77
2023/05/18 01:57:33;;;;;;;4.75;2.30;;;11.40;88.90;;;;;;5072455;28;20253;-77
2023/05/18 02:00:06;;;;;;;3.63;1.80;;;11.40;88.80;;;;;;5075689;28;20269;-74
2023/05/18 02:02:34;;;;;;;6.90;2.00;;;11.40;89.20;;;;;;5075892;28;20406;-76
2023/05/18 02:05:01;;;;;;;8.63;2.63;;;11.40;89.30;;;;;;5076655;28;20259;-76
2023/05/18 02:07:28;;;;;;;3.90;1.80;;;11.40;89.60;;;;;;5075558;28;20231;-76
2023/05/18 02:09:55;;;;;;;4.25;1.50;;;11.30;89.50;;;;;;5076675;28;20220;-75
2023/05/18 02:12:22;;;;;;;2.80;1.65;;;11.30;89.50;;;;;;5075801;28;20230;-76
2023/05/18 02:14:49;;;;;;;6.07;2.08;;;11.40;89.70;;;;;;5076096;28;20216;-75
2023/05/18 02:17:17;;;;;;;7.72;2.05;;;11.40;90.00;;;;;;5075083;28;20269;-75
2023/05/18 02:19:44;;;;;;;6.00;2.47;;;11.30;90.10;;;;;;5076630;28;20354;-74
2023/05/18 02:22:12;;;;;;;6.90;3.60;;;11.30;90.20;;;;;;5075152;28;20220;-75
2023/05/18 02:24:39;;;;;;;6.22;2.47;;;11.30;90.30;;;;;;5073535;28;20264;-77
2023/05/18 02:27:06;;;;;;;6.78;2.30;;;11.20;90.40;;;;;;5075272;28;20256;-74
2023/05/18 02:29:33;;;;;;;6.55;2.78;;;11.20;90.40;;;;;;5075823;28;20247;-76
2023/05/18 02:32:13;;;;;;;5.95;3.70;;;11.20;90.40;;;;;;5076070;28;20247;-77
2023/05/18 02:34:42;;;;;;;3.92;1.98;;;11.20;90.50;;;;;;5074396;28;20273;-77
2023/05/18 02:37:09;;;;;;;4.43;2.25;;;11.20;90.60;;;;;;5069905;28;20565;-77
2023/05/18 02:39:36;;;;;;;4.90;2.38;;;11.20;90.70;;;;;;5052124;28;21809;-75
2023/05/18 02:42:04;;;;;;;3.50;1.77;;;11.20;90.70;;;;;;5054129;28;20601;-75
2023/05/18 02:44:36;;;;;;;3.75;1.73;;;11.20;90.80;;;;;;5052878;28;20231;-78
2023/05/18 02:47:03;;;;;;;5.13;2.30;;;11.20;90.80;;;;;;5054066;28;20302;-78
2023/05/18 02:49:32;;;;;;;7.95;3.08;;;11.20;90.80;;;;;;5054258;28;20561;-75
2023/05/18 02:52:00;;;;;;;4.70;2.67;;;11.30;90.80;;;;;;5055455;28;20235;-76
2023/05/18 02:54:27;;;;;;;4.22;1.80;;;11.30;90.90;;;;;;5059625;28;20231;-78
2023/05/18 02:56:55;;;;;;;5.95;2.83;;;11.20;91.00;;;;;;5075470;28;20216;-75
2023/05/18 02:59:22;;;;;;;4.63;2.33;;;11.20;91.00;;;;;;5074753;28;20220;-75
2023/05/18 03:01:50;;;;;;;6.57;2.38;;;11.20;91.00;;;;;;5075620;28;20558;-78
2023/05/18 03:04:17;;;;;;;4.45;2.45;;;11.30;91.10;;;;;;5075742;28;20314;-78
2023/05/18 03:06:45;;;;;;;4.65;2.97;;;11.30;91.20;;;;;;5074735;28;20220;-75
2023/05/18 03:09:14;;;;;;;9.30;4.60;;;11.30;91.20;;;;;;5075022;28;20216;-75
2023/05/18 03:11:43;;;;;;;6.32;2.70;;;11.30;91.30;;;;;;5079189;28;20298;-75
2023/05/18 03:14:11;;;;;;;9.63;4.57;;;11.30;91.30;;;;;;5095562;28;20218;-75
2023/05/18 03:16:38;;;;;;;5.00;3.83;;;11.30;91.40;;;;;;5094518;28;20523;-79
2023/05/18 03:19:05;;;;;;;6.82;2.63;;;11.30;91.50;;;;;;5084621;28;20228;-78
2023/05/18 03:21:35;;;;;;;3.80;2.10;;;11.30;91.50;;;;;;5074327;28;20253;-78
2023/05/18 03:24:03;;;;;;;3.88;2.75;;;11.30;91.50;;;;;;5074962;28;20688;-78
2023/05/18 03:26:31;;;;;;;3.80;2.00;;;11.30;91.50;;;;;;5074389;28;20281;-75
2023/05/18 03:29:00;;;;;;;5.40;2.65;;;11.30;91.50;;;;;;5075201;28;20311;-75
2023/05/18 03:31:27;;;;;;;3.97;2.05;;;11.30;91.60;;;;;;5074480;28;20232;-75
2023/05/18 03:33:54;;;;;;;6.88;2.17;;;11.30;91.60;;;;;;5075175;28;20745;-75
2023/05/18 03:36:21;;;;;;;7.07;2.58;;;11.30;91.60;;;;;;5074331;28;20224;-75
2023/05/18 03:38:48;;;;;;;8.15;2.65;;;11.30;91.80;;;;;;5074664;28;20697;-78
2023/05/18 03:41:15;;;;;;;8.00;2.75;;;11.30;91.90;;;;;;5075135;28;20216;-77
2023/05/18 03:43:44;;;;;;;6.50;3.15;;;11.30;91.90;;;;;;5074256;28;20224;-75
2023/05/18 03:46:11;;;;;;;7.18;3.95;;;11.30;92.00;;;;;;5074497;28;20243;-78
2023/05/18 03:48:38;;;;;;;3.85;2.70;;;11.30;92.10;;;;;;5074628;28;20236;-77
2023/05/18 03:51:06;;;;;;;8.07;4.35;;;11.30;92.20;;;;;;5074623;28;20244;-75
2023/05/18 03:53:35;;;;;;;8.70;4.22;;;11.30;92.30;;;;;;5074063;28;20247;-75
2023/05/18 03:56:01;;;;;;;5.25;3.13;;;11.40;92.40;;;;;;5074095;28;20234;-75
2023/05/18 03:58:28;;;;;;;8.48;2.78;;;11.40;92.40;;;;;;5073967;28;20223;-77
2023/05/18 04:00:57;;;;;;;13.10;4.65;;;11.40;92.50;;;;;;5074457;28;20240;-75
2023/05/18 04:03:25;;;;;;;9.23;3.85;;;11.40;92.60;;;;;;5074347;28;20686;-75
2023/05/18 04:05:52;;;;;;;6.05;3.20;;;11.30;92.70;;;;;;5073116;28;20239;-77
2023/05/18 04:08:24;;;;;;;4.47;2.67;;;11.40;92.70;;;;;;5069889;28;20231;-76
2023/05/18 04:10:51;;;;;;;6.05;2.35;;;11.40;92.80;;;;;;5080851;28;20227;-75
2023/05/18 04:13:18;;;;;;;6.50;2.40;;;11.40;93.00;;;;;;5074543;28;20249;-77
2023/05/18 04:15:46;;;;;;;7.25;4.13;;;11.40;92.90;;;;;;5073893;28;20228;-75
2023/05/18 04:18:16;;;;;;;8.55;3.15;;;11.40;93.00;;;;;;5073821;28;20224;-77
2023/05/18 04:20:44;;;;;;;6.30;2.42;;;11.40;93.10;;;;;;5073790;28;20278;-75
2023/05/18 04:23:12;;;;;;;9.27;3.20;;;11.40;93.30;;;;;;5073652;28;20216;-75
2023/05/18 04:25:40;;;;;;;9.25;2.53;;;11.40;93.40;;;;;;5073451;28;20274;-76
2023/05/18 04:28:08;;;;;;;8.82;3.17;;;11.40;93.40;;;;;;5074327;28;20602;-77
2023/05/18 04:30:37;;;;;;;4.80;2.35;;;11.40;93.40;;;;;;5073778;28;20235;-78
2023/05/18 04:33:08;;;;;;;5.50;2.50;;;11.40;93.50;;;;;;5074346;28;20274;-77
2023/05/18 04:35:36;;;;;;;9.93;2.80;;;11.40;93.50;;;;;;5073339;28;20238;-76
2023/05/18 04:38:04;;;;;;;2.85;1.80;;;11.40;93.50;;;;;;5074009;28;20665;-75
2023/05/18 04:40:32;;;;;;;8.02;2.90;;;11.50;93.70;;;;;;5073945;28;20224;-76
2023/05/18 04:42:59;;;;;;;6.72;3.30;;;11.50;93.70;;;;;;5073496;28;20223;-76
2023/05/18 04:45:26;;;;;;;5.72;2.00;;;11.50;93.70;;;;;;5073507;28;20228;-78
2023/05/18 04:47:53;;;;;;;9.38;2.75;;;11.50;93.80;;;;;;5073362;28;20330;-75
2023/05/18 04:50:24;;;;;;;4.35;1.83;;;11.50;93.80;;;;;;5073620;28;20662;-78
2023/05/18 04:52:56;;;;;;;5.40;2.63;;;11.60;94.00;;;;;;5072332;28;20569;-74
2023/05/18 04:55:26;;;;;;;4.82;2.25;;;11.60;94.10;;;;;;5072956;28;20697;-76
2023/05/18 04:57:55;;;;;;;7.45;2.65;;;11.60;94.00;;;;;;5073237;28;20239;-78
2023/05/18 05:00:22;;;;;;;3.92;2.10;;;11.60;94.00;;;;;;5073213;28;20220;-75
2023/05/18 05:02:50;;;;;;;7.05;2.75;;;11.70;93.90;;;;;;5072291;28;20225;-77
2023/05/18 05:05:17;;;;;;;4.38;2.50;;;11.60;93.90;;;;;;5079848;28;20617;-77
2023/05/18 05:07:44;;;;;;;5.40;2.10;;;11.60;94.10;;;;;;5072927;28;20250;-77
2023/05/18 05:10:13;;;;;;;5.30;2.55;;;11.60;94.10;;;;;;5073578;28;20219;-78
2023/05/18 05:12:42;;;;;;;6.55;2.45;;;11.70;94.10;;;;;;5072788;28;20224;-78
2023/05/18 05:15:10;;;;;;;11.80;2.10;;;11.70;94.10;;;;;;5073482;28;20293;-75
2023/05/18 05:17:37;;;;;;;5.00;1.73;;;11.70;94.20;;;;;;5073057;28;20224;-75
2023/05/18 05:20:05;;;;;;;4.95;2.50;;;11.70;94.10;;;;;;5073059;28;20224;-78
2023/05/18 05:22:34;;;;;;;10.15;3.20;;;11.70;94.20;;;;;;5073246;28;20252;-78
2023/05/18 05:25:01;;;;;;;4.75;2.40;;;11.70;94.30;;;;;;5072139;28;20235;-78
2023/05/18 05:27:30;;;;;;;4.43;2.10;;;11.70;94.50;;;;;;5073183;28;20594;-77
2023/05/18 05:29:59;;;;;;;6.28;2.65;;;11.70;94.60;;;;;;5076796;28;20223;-77
2023/05/18 05:32:26;;;;;;;3.55;2.25;;;11.80;94.70;;;;;;5072988;28;20577;-78
2023/05/18 05:34:53;;;;;;;4.80;1.98;;;11.80;94.50;;;;;;5076149;28;20235;-78
2023/05/18 05:37:20;;;;;;;7.07;2.88;;;11.80;94.50;;;;;;5077299;28;20231;-77
2023/05/18 05:39:47;;;;;;;5.72;2.70;;;11.80;94.40;;;;;;5078112;28;20224;-77
2023/05/18 05:42:14;;;;;;;5.65;2.97;;;11.90;94.40;;;;;;5078759;28;20219;-76
2023/05/18 05:44:42;;;;;;;4.55;2.05;;;11.90;94.40;;;;;;5078636;28;20616;-76
2023/05/18 05:47:10;;;;;;;10.75;3.28;;;11.90;94.40;;;;;;5078226;28;20239;-74
2023/05/18 05:49:37;;;;;;;5.95;2.40;;;11.90;94.40;;;;;;5082504;28;20306;-75
2023/05/18 05:52:04;;;;;;;6.93;2.38;;;12.00;94.50;;;;;;5083776;28;20224;-75
2023/05/18 05:54:32;;;;;;;9.30;2.80;;;12.10;94.40;;;;;;5083005;28;20254;-75
2023/05/18 05:56:59;;;;;;;10.57;4.07;;;12.20;94.50;;;;;;5081558;28;20278;-77
2023/05/18 05:59:26;;;;;;;4.80;2.50;;;12.20;94.40;;;;;;5081334;28;20345;-75
2023/05/18 06:01:55;;;;;;;10.50;2.75;;;12.30;94.30;;;;;;5083719;28;20219;-75
2023/05/18 06:04:22;;;;;;;5.88;2.97;;;12.30;94.10;;;;;;5080404;28;20228;-74
2023/05/18 06:06:49;;;;;;;4.13;1.98;;;12.40;94.20;;;;;;5078175;28;20571;-74
2023/05/18 06:09:16;;;;;;;8.32;3.10;;;12.40;94.10;;;;;;5077371;28;20540;-75
2023/05/18 06:11:43;;;;;;;5.50;2.60;;;12.50;94.00;;;;;;5077751;28;20220;-74
2023/05/18 06:14:10;;;;;;;7.28;2.53;;;12.60;94.10;;;;;;5079183;28;20235;-75
2023/05/18 06:16:37;;;;;;;5.03;3.08;;;12.60;94.00;;;;;;5079754;28;20262;-75
2023/05/18 06:19:06;;;;;;;5.90;3.35;;;12.70;94.00;;;;;;5079566;28;20224;-75
2023/05/18 06:21:33;;;;;;;6.85;2.70;;;12.80;93.90;;;;;;5079602;28;20228;-75
2023/05/18 06:24:00;;;;;;;3.05;2.55;;;12.90;93.80;;;;;;5081260;28;20227;-75
2023/05/18 06:26:27;;;;;;;5.50;1.85;;;13.00;93.70;;;;;;5085008;28;20236;-77
2023/05/18 06:28:54;;;;;;;8.48;2.58;;;13.10;93.60;;;;;;5087121;28;20254;-74
2023/05/18 06:31:21;;;;;;;5.95;2.92;;;13.10;93.50;;;;;;5084917;28;20215;-77
2023/05/18 06:33:48;;;;;;;5.72;2.10;;;13.30;93.50;;;;;;5084325;28;20231;-77
2023/05/18 06:36:17;;;;;;;6.90;2.33;;;13.40;93.40;;;;;;5086659;28;20231;-77
2023/05/18 06:38:44;;;;;;;6.70;3.13;;;13.60;93.20;;;;;;5087947;28;20224;-77
2023/05/18 06:41:11;;;;;;;6.00;3.03;;;13.70;93.10;;;;;;5082532;28;20223;-75
2023/05/18 06:43:38;;;;;;;6.33;2.57;;;13.90;92.90;;;;;;5085132;28;20458;-77
2023/05/18 06:46:06;;;;;;;5.90;3.70;;;14.00;92.90;;;;;;5085061;28;20542;-75
2023/05/18 06:48:34;;;;;;;4.70;2.60;;;14.10;92.40;;;;;;5083797;28;20466;-77
2023/05/18 06:51:01;;;;;;;5.37;2.03;;;14.30;92.10;;;;;;5084618;28;20566;-76
2023/05/18 06:53:30;;;;;;;4.27;2.10;;;14.40;92.00;;;;;;5084163;28;20474;-76
2023/05/18 06:55:57;;;;;;;4.30;2.50;;;14.60;91.70;;;;;;5084343;28;20473;-74
2023/05/18 06:58:25;;;;;;;7.57;2.97;;;14.70;91.40;;;;;;5081476;28;20458;-75
2023/05/18 07:00:53;;;;;;;5.87;2.07;;;14.90;91.30;;;;;;5079811;28;20485;-74
2023/05/18 07:03:19;;;;;;;6.90;2.50;;;15.00;91.10;;;;;;5080721;28;20954;-75
2023/05/18 07:05:46;;;;;;;4.57;2.00;;;15.20;90.60;;;;;;5080797;28;20483;-77
2023/05/18 07:08:13;;;;;;;9.93;4.17;;;15.20;90.20;;;;;;5086559;28;20500;-75
2023/05/18 07:10:42;;;;;;;12.23;2.43;;;15.30;90.10;;;;;;5085899;28;20458;-75
2023/05/18 07:13:08;;;;;;;6.60;3.10;;;15.40;89.80;;;;;;5089091;28;20526;-77
2023/05/18 07:15:35;;;;;;;2.50;2.07;;;15.40;88.60;;;;;;5090163;28;20470;-77
2023/05/18 07:18:04;;;;;;;5.83;2.37;;;15.50;87.70;;;;;;5088534;28;20565;-77
2023/05/18 07:20:31;;;;;;;4.00;2.33;;;15.50;87.70;;;;;;5085434;28;20465;-75
2023/05/18 07:22:58;;;;;;;6.13;2.23;;;15.70;88.20;;;;;;5079671;28;20466;-77
2023/05/18 07:25:25;;;;;;;6.77;2.43;;;15.80;86.30;;;;;;5079721;28;21018;-76
2023/05/18 07:27:54;;;;;;;4.10;1.80;;;15.90;86.00;;;;;;5080146;28;20534;-74
2023/05/18 07:30:21;;;;;;;6.90;1.80;;;16.00;85.70;;;;;;5080087;28;20474;-77
2023/05/18 07:32:50;;;;;;;6.43;2.07;;;16.20;85.20;;;;;;5089088;28;20454;-77
2023/05/18 07:35:18;;;;;;;5.93;2.00;;;16.30;83.70;;;;;;5087085;28;20467;-77
2023/05/18 07:37:45;;;;;;;6.50;2.03;;;16.40;83.10;;;;;;5089215;28;20780;-77
2023/05/18 07:40:13;;;;;;;4.23;1.60;;;16.50;83.00;;;;;;5088800;28;20470;-77
2023/05/18 07:42:40;;;;;;;8.43;2.20;;;16.60;83.10;;;;;;5090130;28;21037;-77
2023/05/18 07:45:10;;;;;;;4.70;1.93;;;16.70;82.70;;;;;;5088480;28;20467;-75
2023/05/18 07:47:37;;;;;;;4.73;2.47;;;16.80;80.90;;;;;;5086305;28;20454;-74
2023/05/18 07:50:05;;;;;;;3.20;1.90;;;16.80;80.10;;;;;;5086224;28;20471;-74
2023/05/18 07:52:32;;;;;;;3.30;1.60;;;16.80;79.80;;;;;;5085158;28;20466;-76
2023/05/18 07:55:01;;;;;;;5.23;3.00;;;16.70;79.30;;;;;;5083113;28;20482;-77
2023/05/18 07:57:28;;;;;;;6.53;2.03;;;16.70;79.00;;;;;;5080660;28;20538;-74
2023/05/18 07:59:55;;;;;;;10.73;1.90;;;16.70;77.90;;;;;;5078986;28;20536;-75
2023/05/18 08:02:23;;;;;;;3.97;2.63;;;16.70;76.90;;;;;;5081620;28;20975;-77
2023/05/18 08:04:50;;;;;;;8.53;1.67;;;16.80;75.50;;;;;;5080548;28;20477;-75
2023/05/18 08:07:18;;;;;;;3.23;1.80;;;16.70;74.90;;;;;;5079443;28;21041;-75
2023/05/18 08:09:45;;;;;;;5.50;1.90;;;16.70;75.20;;;;;;5078719;28;20541;-76
2023/05/18 08:12:12;;;;;;;9.77;2.23;;;16.70;76.00;;;;;;5077317;28;20492;-75
2023/05/18 08:14:39;;;;;;;6.20;2.20;;;16.70;76.10;;;;;;5078377;28;20520;-75
2023/05/18 08:17:06;;;;;;;3.70;1.87;;;16.60;75.20;;;;;;5077919;28;20974;-75
2023/05/18 08:19:35;;;;;;;7.17;2.20;;;16.80;73.50;;;;;;5077458;28;20470;-76
2023/05/18 08:22:02;;;;;;;3.00;1.57;;;16.80;72.80;;;;;;5078863;28;20477;-75
2023/05/18 08:24:30;;;;;;;8.63;2.20;;;17.00;73.00;;;;;;5075657;28;20462;-75
2023/05/18 08:27:02;;;;;;;5.33;3.00;;;17.10;72.30;;;;;;5078239;28;20478;-76
2023/05/18 08:29:29;;;;;;;4.83;2.97;;;17.20;72.20;;;;;;5075143;28;20470;-76
2023/05/18 08:31:56;;;;;;;4.37;2.70;;;17.20;72.10;;;;;;5076370;28;20483;-76
2023/05/18 08:34:24;;;;;;;5.23;3.70;;;17.20;72.10;;;;;;5075678;28;20466;-76
2023/05/18 08:36:52;;;;;;;4.70;2.80;;;17.20;72.10;;;;;;5074799;28;20474;-75
2023/05/18 08:39:21;;;;;;;10.03;2.13;;;17.20;71.80;;;;;;5070485;28;20493;-76
2023/05/18 08:41:56;;;;;;;5.80;2.67;;;17.20;71.80;;;;;;5076206;28;20488;-80
2023/05/18 08:44:29;;;;;;;38.30;30.77;;;17.20;72.90;;;;;;5072134;28;20474;-79
2023/05/18 08:47:00;;;;;;;16.87;12.43;;;17.20;88.40;;;;;;5063685;28;20470;-85
2023/05/18 08:49:31;;;;;;;38.67;30.20;;;17.20;74.30;;;;;;5056477;28;20478;-80
2023/05/18 08:52:05;;;;;;;56.57;43.10;;;17.20;79.90;;;;;;5070034;28;20826;-92
2023/05/18 08:54:37;;;;;;;15.00;11.20;;;17.20;84.70;;;;;;5065972;28;20489;-90
2023/05/18 08:57:16;;;;;;;10.77;2.77;;;17.20;77.10;;;;;;5081674;28;20474;-88
2023/05/18 08:59:44;;;;;;;6.00;3.40;;;17.30;72.90;;;;;;5063749;28;20467;-76
2023/05/18 09:02:15;;;;;;;6.30;5.57;;;17.30;71.30;;;;;;5054534;28;20865;-77
2023/05/18 09:05:09;;;;;;;4.70;2.50;;;17.20;71.10;;;;;;5054178;28;20471;-78
2023/05/18 09:07:39;;;;;;;14.70;11.30;;;17.20;70.20;;;;;;5053787;28;20763;-76
2023/05/18 09:10:08;;;;;;;8.20;4.63;;;16.90;78.10;;;;;;5055490;28;20475;-84
2023/05/18 09:12:40;;;;;;;17.07;11.20;;;16.90;73.40;;;;;;5056654;28;20475;-82
2023/05/18 09:15:10;;;;;;;17.77;13.33;;;16.90;74.10;;;;;;5060876;28;20825;-81
2023/05/18 09:17:37;;;;;;;9.07;5.57;;;16.90;78.10;;;;;;5057592;28;20824;-83
2023/05/18 09:20:05;;;;;;;23.93;21.03;;;17.00;72.30;;;;;;5055573;28;20953;-81
2023/05/18 09:22:34;;;;;;;37.70;30.47;;;17.00;78.80;;;;;;5055091;28;20493;-77
2023/05/18 09:25:03;;;;;;;8.57;5.70;;;17.00;81.70;;;;;;5055094;28;20514;-76
2023/05/18 09:27:30;;;;;;;33.13;26.47;;;17.00;82.80;;;;;;5054665;28;20479;-78
2023/05/18 09:29:58;;;;;;;22.20;19.67;;;17.10;79.30;;;;;;5057145;28;20466;-80
2023/05/18 09:32:26;;;;;;;63.57;28.37;;;17.10;77.40;;;;;;5056758;28;20467;-82
2023/05/18 09:34:54;;;;;;;37.03;29.77;;;17.10;78.80;;;;;;5053549;28;20475;-83
2023/05/18 09:37:22;;;;;;;41.57;34.63;;;17.00;81.30;;;;;;5058713;28;20467;-77
2023/05/18 09:39:59;;;;;;;3.10;2.03;;;17.10;81.00;;;;;;5062821;28;20467;-79
2023/05/18 09:42:37;;;;;;;8.00;5.27;;;17.10;70.80;;;;;;5069405;28;20990;-78
2023/05/18 09:45:04;;;;;;;19.37;14.80;;;17.00;73.20;;;;;;5060331;28;20463;-79
2023/05/18 09:47:33;;;;;;;20.53;16.83;;;16.90;76.20;;;;;;5063408;28;20531;-78
2023/05/18 09:50:00;;;;;;;35.33;30.13;;;16.80;79.40;;;;;;5077535;28;20521;-80
2023/05/18 09:52:27;;;;;;;37.83;25.03;;;16.80;84.30;;;;;;5077357;28;20541;-79
2023/05/18 09:54:59;;;;;;;17.37;10.67;;;17.00;82.60;;;;;;5063995;28;20485;-77
2023/05/18 09:57:26;;;;;;;5.63;3.33;;;17.10;76.20;;;;;;5057948;28;20573;-77
2023/05/18 10:00:09;;;;;;;3.33;2.20;;;17.10;75.70;;;;;;5062789;28;20471;-75
2023/05/18 10:02:38;;;;;;;6.00;2.20;;;17.20;69.40;;;;;;5059352;28;20523;-76
2023/05/18 10:05:06;;;;;;;3.90;1.90;;;17.30;68.10;;;;;;5065271;28;20497;-78
2023/05/18 10:07:35;;;;;;;3.00;2.20;;;17.40;67.70;;;;;;5073565;28;20478;-76
2023/05/18 10:10:04;;;;;;;3.97;2.10;;;17.40;67.30;;;;;;5073333;28;20478;-78
2023/05/18 10:12:31;;;;;;;4.30;2.00;;;17.40;66.30;;;;;;5069608;28;20489;-76
2023/05/18 10:15:03;;;;;;;3.47;1.80;;;17.40;66.30;;;;;;5065336;28;20471;-77
2023/05/18 10:17:33;;;;;;;3.77;1.80;;;17.60;67.00;;;;;;5072264;28;20535;-76
2023/05/18 10:20:05;;;;;;;4.90;2.57;;;17.70;66.70;;;;;;5073320;28;20474;-74
2023/05/18 10:22:35;;;;;;;3.60;1.63;;;17.70;66.20;;;;;;5078181;28;20959;-75
2023/05/18 10:25:05;;;;;;;6.80;2.60;;;17.70;66.50;;;;;;5076855;28;20531;-76
2023/05/18 10:27:36;;;;;;;4.67;2.03;;;17.70;65.90;;;;;;5075928;28;20977;-75
2023/05/18 10:30:08;;;;;;;4.00;1.90;;;17.80;65.80;;;;;;5074847;28;20549;-76
2023/05/18 10:32:40;;;;;;;4.27;2.33;;;17.80;65.40;;;;;;5070269;28;20554;-74
2023/05/18 10:35:08;;;;;;;7.10;2.80;;;17.80;65.00;;;;;;5055803;28;20467;-76
2023/05/18 10:37:38;;;;;;;5.80;2.50;;;17.90;65.10;;;;;;5055398;28;20682;-75
2023/05/18 10:40:07;;;;;;;3.63;1.77;;;17.90;65.20;;;;;;5044580;28;20467;-74
2023/05/18 10:42:36;;;;;;;5.37;3.03;;;17.90;64.80;;;;;;5072346;28;20467;-76
2023/05/18 10:45:07;;;;;;;3.87;2.13;;;17.90;65.00;;;;;;5075467;28;20466;-75
2023/05/18 10:47:38;;;;;;;4.07;1.53;;;18.00;64.60;;;;;;5076073;28;20922;-76
2023/05/18 10:50:06;;;;;;;4.50;2.10;;;17.90;64.70;;;;;;5077813;28;20470;-76
2023/05/18 10:52:33;;;;;;;5.23;1.77;;;18.00;64.30;;;;;;5079412;28;20537;-76
2023/05/18 10:55:03;;;;;;;5.07;1.90;;;17.90;64.10;;;;;;5075405;28;20470;-75
2023/05/18 10:57:35;;;;;;;3.47;1.83;;;17.90;63.80;;;;;;5078774;28;20969;-76
2023/05/18 11:00:08;;;;;;;3.50;2.00;;;17.80;63.90;;;;;;5074192;28;20466;-74
2023/05/18 11:02:38;;;;;;;2.67;2.27;;;17.80;63.60;;;;;;5076523;28;20470;-76
2023/05/18 11:05:06;;;;;;;6.73;2.70;;;17.80;64.30;;;;;;5077796;28;20505;-76
2023/05/18 11:07:34;;;;;;;4.00;2.37;;;17.80;63.50;;;;;;5077056;28;20462;-75
2023/05/18 11:10:02;;;;;;;2.57;2.37;;;17.80;63.60;;;;;;5075620;28;20850;-76
2023/05/18 11:12:36;;;;;;;2.30;1.90;;;17.80;63.60;;;;;;5075926;28;20462;-76
2023/05/18 11:15:06;;;;;;;5.47;3.10;;;17.80;63.30;;;;;;5076008;28;20470;-76
2023/05/18 11:17:33;;;;;;;4.27;1.70;;;17.90;63.00;;;;;;5076845;28;20573;-75
2023/05/18 11:20:18;;;;;;;5.60;1.40;;;17.90;62.10;;;;;;5072796;28;20481;-77
2023/05/18 11:22:51;;;;;;;2.43;1.90;;;17.90;61.30;;;;;;5074168;28;20478;-77
2023/05/18 11:25:40;;;;;;;3.20;1.97;;;17.90;61.40;;;;;;5075675;28;20533;-76
2023/05/18 11:28:09;;;;;;;5.10;2.67;;;17.90;61.50;;;;;;5077641;28;20467;-77
2023/05/18 11:30:50;;;;;;;7.10;2.30;;;17.80;61.80;;;;;;5076018;28;20539;-76
2023/05/18 11:33:21;;;;;;;2.70;2.47;;;17.80;61.40;;;;;;5074748;28;20465;-77
2023/05/18 11:35:56;;;;;;;4.53;2.00;;;17.80;61.70;;;;;;5076229;28;20494;-76
2023/05/18 11:38:23;;;;;;;2.20;1.90;;;17.70;61.90;;;;;;5075671;28;20527;-76
2023/05/18 11:40:51;;;;;;;4.67;2.07;;;17.60;62.30;;;;;;5075685;28;20470;-77
2023/05/18 11:43:22;;;;;;;3.53;1.73;;;17.60;62.80;;;;;;5074309;28;20528;-77
2023/05/18 11:45:54;;;;;;;4.97;2.33;;;17.60;62.50;;;;;;5074027;28;21044;-76
2023/05/18 11:48:22;;;;;;;2.03;1.53;;;17.60;62.90;;;;;;5075291;28;20458;-75
2023/05/18 11:50:54;;;;;;;3.40;1.73;;;17.60;62.10;;;;;;5076722;28;20481;-75
2023/05/18 11:53:26;;;;;;;3.00;1.50;;;17.70;61.90;;;;;;5074645;28;20454;-76
2023/05/18 11:55:55;;;;;;;3.47;2.10;;;17.70;61.00;;;;;;5075012;28;21025;-75
2023/05/18 11:58:25;;;;;;;4.50;1.90;;;17.70;60.80;;;;;;5076509;28;20462;-75
2023/05/18 12:00:55;;;;;;;3.30;1.80;;;17.80;61.90;;;;;;5075374;28;20497;-77
2023/05/18 12:03:24;;;;;;;6.73;1.90;;;17.90;62.20;;;;;;5074967;28;20462;-76
2023/05/18 12:05:51;;;;;;;8.40;2.00;;;17.90;61.30;;;;;;5075244;28;20811;-76
2023/05/18 12:08:19;;;;;;;5.53;2.23;;;17.90;61.30;;;;;;5074945;28;20470;-76
2023/05/18 12:10:46;;;;;;;3.87;2.40;;;17.90;61.20;;;;;;5074135;28;20482;-76
2023/05/18 12:13:14;;;;;;;3.90;1.93;;;17.80;60.70;;;;;;5072760;28;20982;-76
2023/05/18 12:15:42;;;;;;;5.03;2.07;;;17.80;61.10;;;;;;5075137;28;20478;-76
2023/05/18 12:18:13;;;;;;;3.83;1.70;;;17.80;62.00;;;;;;5074608;28;20498;-75
2023/05/18 12:20:41;;;;;;;5.13;1.83;;;17.80;60.50;;;;;;5075398;28;20549;-77
2023/05/18 12:23:08;;;;;;;4.77;1.93;;;17.80;60.50;;;;;;5062395;28;20978;-76
2023/05/18 12:25:37;;;;;;;5.80;1.90;;;17.90;60.70;;;;;;5053988;28;20475;-76
2023/05/18 12:28:06;;;;;;;6.80;2.20;;;18.00;60.20;;;;;;5055071;28;20467;-76
2023/05/18 12:30:38;;;;;;;3.37;1.63;;;17.90;59.80;;;;;;5055310;28;20546;-76
2023/05/18 12:33:05;;;;;;;4.13;1.93;;;17.80;59.90;;;;;;5053659;28;20555;-75
2023/05/18 12:35:34;;;;;;;2.70;1.40;;;17.80;59.80;;;;;;5054369;28;20459;-76
2023/05/18 12:38:01;;;;;;;5.30;2.10;;;17.80;60.00;;;;;;5054361;28;20889;-75
2023/05/18 12:40:42;;;;;;;3.77;1.60;;;17.80;59.90;;;;;;5053961;28;20455;-76
2023/05/18 12:43:13;;;;;;;4.77;2.27;;;17.90;59.90;;;;;;5054210;28;20505;-75
2023/05/18 12:45:40;;;;;;;2.93;2.03;;;18.00;60.20;;;;;;5054485;28;20497;-75
2023/05/18 12:48:09;;;;;;;3.90;2.17;;;18.10;60.60;;;;;;5053565;28;20804;-75
2023/05/18 12:50:47;;;;;;;2.80;1.73;;;18.10;60.90;;;;;;5054052;28;20479;-75
2023/05/18 12:53:17;;;;;;;2.43;1.67;;;18.10;61.00;;;;;;5053947;28;20467;-75